Time;durP1;ratioP1;P1;durP2;ratioP2;P2;SDS_P1;SDS_P2;PMS_P1;PMS_P2;Temp;Humidity;BMP_temperature;BMP_pressure;BME280_temperature;BME280_humidity;BME280_pressure;Samples;Min_cycle;Max_cycle;Signal;HPM_P1;HPM_P2
2021/04/18 00:01:10;;;;;;;65.70;40.40;;;;;;;5.15;88.31;99222.83;113095;1203;64375;-80
2021/04/18 00:03:37;;;;;;;72.65;43.55;;;;;;;5.10;88.17;99216.88;113159;1203;64316;-80
2021/04/18 00:06:04;;;;;;;84.15;47.85;;;;;;;5.08;88.22;99217.86;113290;1203;64398;-81
2021/04/18 00:08:31;;;;;;;77.93;46.03;;;;;;;5.06;88.37;99223.22;113342;1203;64449;-80
2021/04/18 00:10:58;;;;;;;79.77;45.33;;;;;;;5.05;88.52;99217.09;113321;1203;64432;-80
2021/04/18 00:13:25;;;;;;;74.83;42.77;;;;;;;5.05;88.49;99221.48;113250;1203;64398;-80
2021/04/18 00:15:51;;;;;;;67.73;41.23;;;;;;;5.04;88.46;99217.98;113337;1203;64426;-80
2021/04/18 00:18:18;;;;;;;69.10;39.70;;;;;;;5.08;88.46;99221.35;113199;1203;64410;-80
2021/04/18 00:20:46;;;;;;;63.85;41.55;;;;;;;5.13;88.64;99216.73;113164;1203;64378;-81
2021/04/18 00:23:12;;;;;;;69.10;45.80;;;;;;;5.14;88.48;99213.20;113345;1203;64391;-80
2021/04/18 00:25:39;;;;;;;75.25;50.30;;;;;;;5.16;88.66;99218.39;113455;1203;64426;-80
2021/04/18 00:28:05;;;;;;;72.70;47.30;;;;;;;5.13;88.60;99215.89;113218;1203;64372;-80
2021/04/18 00:30:32;;;;;;;66.85;40.20;;;;;;;5.13;88.53;99216.73;113374;1203;64423;-80
2021/04/18 00:32:59;;;;;;;68.50;39.30;;;;;;;5.11;88.44;99209.80;113218;1203;64417;-80
2021/04/18 00:35:26;;;;;;;64.45;38.85;;;;;;;5.09;88.58;99211.67;113338;1203;64416;-80
2021/04/18 00:37:53;;;;;;;72.35;40.85;;;;;;;5.09;88.64;99207.23;113229;1203;64468;-81
2021/04/18 00:40:23;;;;;;;76.00;41.20;;;;;;;5.09;88.77;99209.88;113160;1203;64893;-81
2021/04/18 00:42:51;;;;;;;67.10;39.60;;;;;;;5.09;88.53;99204.59;113282;1203;64324;-80
2021/04/18 00:45:19;;;;;;;74.70;40.20;;;;;;;5.11;88.66;99207.16;113227;1203;64394;-80
2021/04/18 00:47:49;;;;;;;72.80;41.83;;;;;;;5.11;88.67;99205.41;113227;1203;64494;-80
2021/04/18 00:50:31;;;;;;;71.25;42.50;;;;;;;5.14;88.86;99207.91;113245;1203;64368;-80
2021/04/18 00:52:58;;;;;;;71.80;41.35;;;;;;;5.20;88.80;99204.16;113309;1203;64323;-80
2021/04/18 00:55:28;;;;;;;73.70;42.53;;;;;;;5.21;88.85;99204.09;113368;1203;64407;-80
2021/04/18 00:57:56;;;;;;;76.03;46.30;;;;;;;5.21;88.58;99203.22;113154;1203;64394;-80
2021/04/18 01:00:24;;;;;;;78.67;48.00;;;;;;;5.22;88.79;99207.59;113398;1203;64510;-80
2021/04/18 01:02:50;;;;;;;80.70;46.50;;;;;;;5.21;88.56;99197.93;113321;1203;64506;-81
2021/04/18 01:05:18;;;;;;;79.40;43.75;;;;;;;5.20;88.49;99198.87;113342;1203;64481;-80
2021/04/18 01:07:46;;;;;;;95.40;47.40;;;;;;;5.17;88.72;99197.21;113385;1203;64461;-80
2021/04/18 01:10:15;;;;;;;89.75;49.35;;;;;;;5.18;88.60;99200.70;113267;1203;64432;-80
2021/04/18 01:12:42;;;;;;;84.03;46.23;;;;;;;5.14;88.67;99196.49;113272;1203;64407;-80
2021/04/18 01:15:10;;;;;;;84.45;46.20;;;;;;;5.14;88.70;99199.98;113179;1203;64410;-80
2021/04/18 01:17:37;;;;;;;79.85;43.45;;;;;;;5.13;88.71;99197.39;113201;1206;64448;-80
2021/04/18 01:20:08;;;;;;;79.53;41.70;;;;;;;5.13;88.84;99195.61;113359;1203;64395;-79
2021/04/18 01:22:35;;;;;;;83.67;44.50;;;;;;;5.20;88.90;99198.87;113355;1203;64353;-80
2021/04/18 01:25:03;;;;;;;76.90;42.85;;;;;;;5.24;89.00;99192.55;113432;1203;64531;-80
2021/04/18 01:27:30;;;;;;;80.03;43.73;;;;;;;5.24;88.77;99193.40;113334;1203;64427;-81
2021/04/18 01:29:57;;;;;;;80.00;43.30;;;;;;;5.24;88.54;99196.04;113422;1203;64368;-81
2021/04/18 01:32:23;;;;;;;82.35;44.20;;;;;;;5.23;88.54;99199.59;113410;1203;64391;-80
2021/04/18 01:34:50;;;;;;;83.50;44.30;;;;;;;5.24;88.69;99196.04;113428;1203;64397;-82
2021/04/18 01:37:20;;;;;;;82.45;44.85;;;;;;;5.24;88.53;99189.91;113200;1203;64432;-80
2021/04/18 01:39:48;;;;;;;86.90;46.00;;;;;;;5.23;88.51;99188.16;113468;1203;64339;-81
2021/04/18 01:42:14;;;;;;;90.00;47.75;;;;;;;5.25;88.64;99195.11;113331;1203;64407;-82
2021/04/18 01:44:41;;;;;;;83.90;45.20;;;;;;;5.25;88.77;99188.97;113212;1203;64391;-81
2021/04/18 01:47:08;;;;;;;87.00;46.80;;;;;;;5.23;88.69;99190.81;113200;1203;64397;-81
2021/04/18 01:49:34;;;;;;;81.93;43.67;;;;;;;5.22;88.63;99202.31;113347;1203;64506;-81
2021/04/18 01:52:01;;;;;;;79.03;44.03;;;;;;;5.23;88.76;99188.16;113360;1203;64866;-80
2021/04/18 01:54:27;;;;;;;80.20;44.90;;;;;;;5.23;88.54;99190.81;113089;1203;64442;-80
2021/04/18 01:56:54;;;;;;;79.40;44.05;;;;;;;5.26;88.66;99188.88;113227;1203;64371;-80
2021/04/18 01:59:21;;;;;;;78.60;44.20;;;;;;;5.25;88.67;99183.69;113107;1203;64489;-81
2021/04/18 02:01:48;;;;;;;84.20;44.75;;;;;;;5.22;88.67;99189.95;113150;1203;64400;-81
2021/04/18 02:04:26;;;;;;;84.40;44.50;;;;;;;5.28;88.77;99186.19;113253;1203;64449;-82
2021/04/18 02:06:53;;;;;;;84.15;43.90;;;;;;;5.24;88.79;99190.75;113404;1203;64404;-83
2021/04/18 02:09:19;;;;;;;78.35;41.90;;;;;;;5.20;88.75;99183.87;113510;1203;64461;-81
2021/04/18 02:11:46;;;;;;;74.73;42.20;;;;;;;5.20;88.60;99193.58;113388;1203;64416;-82
2021/04/18 02:14:13;;;;;;;72.50;41.97;;;;;;;5.17;88.79;99189.28;113303;1203;64391;-82
2021/04/18 02:16:39;;;;;;;77.95;42.60;;;;;;;5.16;88.83;99179.66;113477;1203;64397;-83
2021/04/18 02:19:06;;;;;;;75.30;41.60;;;;;;;5.14;88.41;99175.36;113450;1203;64330;-81
2021/04/18 02:21:32;;;;;;;74.50;42.17;;;;;;;5.15;88.99;99184.98;113322;1203;64451;-82
2021/04/18 02:23:59;;;;;;;73.20;41.35;;;;;;;5.20;89.07;99177.73;113320;1203;64320;-84
2021/04/18 02:26:25;;;;;;;74.07;42.73;;;;;;;5.21;88.92;99175.03;113286;1203;64416;-82
2021/04/18 02:28:52;;;;;;;75.50;43.50;;;;;;;5.20;88.87;99180.38;113407;1203;64963;-81
2021/04/18 02:31:19;;;;;;;79.00;43.30;;;;;;;5.19;88.81;99176.02;113296;1203;64420;-82
2021/04/18 02:33:45;;;;;;;80.35;44.80;;;;;;;5.20;88.98;99177.73;113261;1203;64442;-81
2021/04/18 02:36:12;;;;;;;84.10;45.30;;;;;;;5.20;89.07;99172.45;113179;1203;64369;-81
2021/04/18 02:38:40;;;;;;;83.10;45.80;;;;;;;5.21;88.94;99171.51;113201;1203;64500;-81
2021/04/18 02:41:06;;;;;;;86.95;45.70;;;;;;;5.19;88.82;99176.02;113246;1203;64481;-81
2021/04/18 02:43:33;;;;;;;82.50;44.10;;;;;;;5.18;89.01;99172.50;113210;1203;64362;-81
2021/04/18 02:46:00;;;;;;;80.40;45.90;;;;;;;5.18;88.75;99167.22;113181;1203;64477;-81
2021/04/18 02:48:27;;;;;;;79.50;45.60;;;;;;;5.17;88.85;99170.79;113162;1203;64315;-82
2021/04/18 02:50:53;;;;;;;79.00;44.37;;;;;;;5.18;88.87;99166.36;113185;1203;64423;-81
2021/04/18 02:53:20;;;;;;;76.53;43.50;;;;;;;5.18;88.90;99163.72;113197;1203;64547;-82
2021/04/18 02:55:47;;;;;;;73.67;43.03;;;;;;;5.23;89.21;99161.74;113076;1203;65997;-82
2021/04/18 02:58:13;;;;;;;79.80;44.33;;;;;;;5.22;88.98;99160.89;113230;1203;64378;-81
2021/04/18 03:00:40;;;;;;;77.20;44.00;;;;;;;5.23;89.05;99159.95;113370;1203;64356;-81
2021/04/18 03:03:07;;;;;;;76.85;42.10;;;;;;;5.23;88.92;99162.59;113251;1203;64547;-81
2021/04/18 03:05:34;;;;;;;72.80;42.60;;;;;;;5.25;89.05;99160.75;113096;1203;64477;-81
2021/04/18 03:08:00;;;;;;;71.45;42.95;;;;;;;5.26;89.02;99154.53;113237;1203;64365;-81
2021/04/18 03:10:28;;;;;;;73.40;43.07;;;;;;;5.28;89.00;99155.33;113217;1203;64461;-81
2021/04/18 03:12:55;;;;;;;72.10;42.85;;;;;;;5.30;89.01;99146.50;113364;1203;64384;-81
2021/04/18 03:15:22;;;;;;;75.20;43.75;;;;;;;5.30;88.98;99147.36;113383;1203;64455;-81
2021/04/18 03:17:50;;;;;;;69.25;42.10;;;;;;;5.30;89.06;99150.00;113466;1203;64441;-83
2021/04/18 03:20:17;;;;;;;65.45;40.85;;;;;;;5.25;88.88;99142.26;113457;1203;64483;-80
2021/04/18 03:22:45;;;;;;;63.60;37.73;;;;;;;5.24;88.98;99135.27;113204;1203;64385;-81
2021/04/18 03:25:12;;;;;;;59.75;38.15;;;;;;;5.24;88.93;99143.20;113195;1203;64475;-80
2021/04/18 03:27:39;;;;;;;58.05;36.20;;;;;;;5.25;88.86;99138.77;113204;1203;64394;-80
2021/04/18 03:30:09;;;;;;;58.40;35.95;;;;;;;5.24;88.90;99139.70;113295;1203;64385;-79
2021/04/18 03:32:35;;;;;;;57.00;35.77;;;;;;;5.24;88.94;99137.06;113494;1203;64346;-80
2021/04/18 03:35:04;;;;;;;57.17;34.97;;;;;;;5.26;88.97;99140.47;113458;1203;64388;-80
2021/04/18 03:37:31;;;;;;;56.20;35.40;;;;;;;5.26;88.78;99137.83;113422;1203;64391;-80
2021/04/18 03:39:57;;;;;;;55.20;33.90;;;;;;;5.25;88.85;99142.26;113329;1203;64487;-80
2021/04/18 03:42:24;;;;;;;55.55;35.40;;;;;;;5.25;88.86;99136.97;113124;1203;64506;-80
2021/04/18 03:44:50;;;;;;;62.35;39.70;;;;;;;5.32;89.17;99139.34;113187;1203;64391;-80
2021/04/18 03:47:17;;;;;;;58.95;36.45;;;;;;;5.41;89.22;99138.95;113318;1203;64506;-81
2021/04/18 03:49:43;;;;;;;56.37;36.00;;;;;;;5.46;88.48;99142.27;113443;1203;64398;-80
2021/04/18 03:52:10;;;;;;;53.40;34.80;;;;;;;5.41;88.56;99139.81;113417;1203;64503;-80
2021/04/18 03:54:37;;;;;;;54.13;35.63;;;;;;;5.38;88.59;99141.73;113416;1203;64547;-80
2021/04/18 03:57:04;;;;;;;50.70;35.50;;;;;;;5.36;88.73;99140.94;113165;1203;64471;-81
2021/04/18 03:59:31;;;;;;;57.33;36.67;;;;;;;5.33;88.63;99141.08;113301;1203;64423;-81
2021/04/18 04:01:57;;;;;;;61.95;38.75;;;;;;;5.28;88.69;99142.13;113430;1203;64477;-81
2021/04/18 04:04:24;;;;;;;54.40;36.30;;;;;;;5.28;88.67;99139.48;113194;1203;64580;-81
2021/04/18 04:06:51;;;;;;;54.10;36.15;;;;;;;5.29;88.90;99137.69;113363;1203;64355;-82
2021/04/18 04:09:19;;;;;;;55.70;36.90;;;;;;;5.28;88.71;99135.98;113230;1203;64401;-82
2021/04/18 04:11:45;;;;;;;54.10;35.30;;;;;;;5.30;88.78;99146.50;113191;1203;64427;-81
2021/04/18 04:14:12;;;;;;;51.95;33.95;;;;;;;5.31;88.89;99142.92;113177;1203;64507;-81
2021/04/18 04:16:39;;;;;;;58.80;36.40;;;;;;;5.36;88.93;99143.59;113136;1203;64957;-80
2021/04/18 04:19:06;;;;;;;58.40;38.60;;;;;;;5.38;89.15;99137.31;113225;1203;64478;-80
2021/04/18 04:21:32;;;;;;;59.90;41.60;;;;;;;5.39;88.89;99141.66;113199;1203;64422;-80
2021/04/18 04:23:59;;;;;;;63.83;40.87;;;;;;;5.40;88.73;99137.26;113283;1203;64401;-82
2021/04/18 04:26:25;;;;;;;64.00;44.13;;;;;;;5.43;88.67;99137.97;113264;1203;64400;-81
2021/04/18 04:28:52;;;;;;;67.85;43.40;;;;;;;5.43;88.75;99134.47;113272;1203;64522;-81
2021/04/18 04:31:18;;;;;;;66.60;42.70;;;;;;;5.41;88.33;99142.45;113147;1203;64490;-81
2021/04/18 04:33:45;;;;;;;71.57;44.83;;;;;;;5.42;88.99;99141.52;113221;1203;64384;-81
2021/04/18 04:36:12;;;;;;;67.00;43.70;;;;;;;5.41;88.74;99139.81;113199;1203;64411;-81
2021/04/18 04:38:39;;;;;;;74.10;47.25;;;;;;;5.43;88.72;99139.76;113195;1203;64480;-80
2021/04/18 04:41:05;;;;;;;74.95;45.80;;;;;;;5.44;88.41;99142.31;113045;1203;64555;-80
2021/04/18 04:43:33;;;;;;;82.63;47.80;;;;;;;5.45;88.49;99144.05;113357;1203;64445;-81
2021/04/18 04:46:00;;;;;;;82.25;48.25;;;;;;;5.45;88.75;99137.88;113200;1203;64410;-80
2021/04/18 04:48:26;;;;;;;80.63;48.90;;;;;;;5.44;88.56;99131.74;113348;1203;64320;-81
2021/04/18 04:50:53;;;;;;;81.35;48.20;;;;;;;5.44;88.53;99137.03;113426;1203;64365;-80
2021/04/18 04:53:20;;;;;;;80.75;47.25;;;;;;;5.44;88.45;99146.75;113445;1203;64532;-82
2021/04/18 04:55:47;;;;;;;74.10;49.05;;;;;;;5.44;88.48;99142.31;113210;1203;64560;-82
2021/04/18 04:58:15;;;;;;;80.65;49.70;;;;;;;5.48;88.57;99137.78;113387;1203;64381;-82
2021/04/18 05:00:43;;;;;;;82.10;51.70;;;;;;;5.56;88.71;99143.58;113347;1203;64420;-83
2021/04/18 05:03:14;;;;;;;84.60;52.10;;;;;;;5.63;88.67;99137.07;113645;1203;64337;-82
2021/04/18 05:05:46;;;;;;;77.10;48.60;;;;;;;5.65;88.17;99127.30;113418;1203;64570;-81
2021/04/18 05:08:37;;;;;;;78.75;49.15;;;;;;;5.69;88.24;99138.61;113235;1203;64346;-82
2021/04/18 05:11:04;;;;;;;81.07;48.77;;;;;;;5.68;88.15;99137.73;113318;1203;64397;-83
2021/04/18 05:13:31;;;;;;;79.10;46.00;;;;;;;5.67;88.01;99135.17;113431;1203;64410;-82
2021/04/18 05:15:57;;;;;;;76.33;46.93;;;;;;;5.68;88.19;99137.73;113437;1203;64509;-82
2021/04/18 05:18:24;;;;;;;70.00;45.75;;;;;;;5.71;88.23;99142.91;113707;1203;64490;-80
2021/04/18 05:20:51;;;;;;;69.60;44.30;;;;;;;5.75;88.21;99140.97;113706;1203;64392;-80
2021/04/18 05:23:18;;;;;;;68.43;42.97;;;;;;;5.77;87.95;99144.41;113668;1203;64509;-80
2021/04/18 05:25:45;;;;;;;69.55;45.05;;;;;;;5.79;88.06;99146.97;113401;1203;64385;-81
2021/04/18 05:28:11;;;;;;;72.53;45.30;;;;;;;5.84;88.29;99159.05;113155;1203;64407;-80
2021/04/18 05:30:38;;;;;;;72.65;45.45;;;;;;;5.88;88.29;99159.80;113193;1203;64474;-81
2021/04/18 05:33:05;;;;;;;68.10;42.95;;;;;;;5.86;88.08;99151.91;113178;1203;64522;-82
2021/04/18 05:35:31;;;;;;;71.55;44.20;;;;;;;5.84;88.08;99159.05;113174;1206;64361;-81
2021/04/18 05:37:58;;;;;;;64.60;41.00;;;;;;;5.83;87.97;99159.99;113248;1203;64507;-81
2021/04/18 05:40:25;;;;;;;65.70;41.00;;;;;;;5.80;88.01;99149.55;113404;1203;64500;-80
2021/04/18 05:42:51;;;;;;;63.93;41.33;;;;;;;5.84;88.17;99160.84;113305;1203;64736;-82
2021/04/18 05:45:18;;;;;;;68.60;42.10;;;;;;;5.89;88.14;99157.06;113427;1203;64494;-82
2021/04/18 05:47:46;;;;;;;65.70;43.30;;;;;;;5.96;88.09;99160.33;113122;1203;64352;-82
2021/04/18 05:50:14;;;;;;;68.10;44.30;;;;;;;6.00;88.04;99166.33;113430;1203;64429;-81
2021/04/18 05:52:41;;;;;;;64.53;41.70;;;;;;;5.96;87.72;99162.98;113335;1203;64391;-81
2021/04/18 05:55:09;;;;;;;67.20;40.40;;;;;;;5.93;87.77;99166.63;113351;1203;64538;-81
2021/04/18 05:57:36;;;;;;;66.87;42.97;;;;;;;5.92;87.61;99166.64;113366;1203;64493;-81
2021/04/18 06:00:06;;;;;;;64.47;42.67;;;;;;;5.93;87.86;99161.33;113072;1203;65181;-80
2021/04/18 06:02:33;;;;;;;63.90;40.70;;;;;;;5.98;87.84;99174.36;113067;1203;64452;-81
2021/04/18 06:05:00;;;;;;;62.90;40.80;;;;;;;6.00;87.80;99167.19;113232;1203;64512;-81
2021/04/18 06:07:27;;;;;;;69.20;44.15;;;;;;;6.03;87.51;99169.72;113403;1203;64414;-80
2021/04/18 06:09:53;;;;;;;70.50;45.50;;;;;;;6.03;87.51;99160.89;113293;1203;64510;-82
2021/04/18 06:12:20;;;;;;;73.03;45.73;;;;;;;6.06;87.70;99166.08;113412;1203;64423;-81
2021/04/18 06:14:47;;;;;;;71.70;45.85;;;;;;;6.10;87.62;99168.48;113327;1203;64395;-81
2021/04/18 06:17:13;;;;;;;76.30;46.90;;;;;;;6.15;87.67;99169.13;113373;1203;64353;-83
2021/04/18 06:19:40;;;;;;;71.33;46.23;;;;;;;6.18;87.50;99170.78;113224;1203;64468;-82
2021/04/18 06:22:07;;;;;;;75.55;46.20;;;;;;;6.19;87.28;99168.98;113174;1203;64433;-81
2021/04/18 06:24:33;;;;;;;74.40;46.80;;;;;;;6.21;87.58;99167.98;113202;1203;64503;-82
2021/04/18 06:27:00;;;;;;;73.45;46.05;;;;;;;6.26;87.36;99165.98;113231;1203;64324;-81
2021/04/18 06:29:27;;;;;;;71.50;45.85;;;;;;;6.28;87.29;99174.72;113319;1203;64430;-80
2021/04/18 06:31:53;;;;;;;65.90;44.10;;;;;;;6.32;86.93;99171.02;113245;1203;64592;-80
2021/04/18 06:34:23;;;;;;;63.40;40.30;;;;;;;6.39;86.81;99168.92;113427;1203;64535;-80
2021/04/18 06:36:51;;;;;;;73.47;43.07;;;;;;;6.38;86.67;99172.52;113272;1203;64423;-80
2021/04/18 06:39:18;;;;;;;69.43;41.83;;;;;;;6.32;86.54;99178.11;113341;1203;64308;-82
2021/04/18 06:42:05;;;;;;;73.50;42.65;;;;;;;6.26;86.71;99183.66;113235;1203;64422;-80
2021/04/18 06:44:33;;;;;;;70.00;42.00;;;;;;;6.22;86.87;99180.31;113169;1203;64515;-81
2021/04/18 06:47:01;;;;;;;75.80;53.20;;;;;;;6.24;86.79;99190.80;113178;1203;64458;-81
2021/04/18 06:49:29;;;;;;;75.20;46.70;;;;;;;6.28;87.03;99182.66;113246;1203;66428;-81
2021/04/18 06:51:57;;;;;;;84.10;50.70;;;;;;;6.32;86.92;99173.66;113442;1203;64391;-81
2021/04/18 06:54:23;;;;;;;76.80;46.70;;;;;;;6.39;86.77;99179.52;113444;1203;64372;-81
2021/04/18 06:56:50;;;;;;;75.30;48.50;;;;;;;6.45;86.66;99181.01;113268;1203;64394;-81
2021/04/18 06:59:17;;;;;;;76.00;45.55;;;;;;;6.59;86.61;99174.14;113437;1203;64554;-81
2021/04/18 07:01:44;;;;;;;69.25;42.00;;;;;;;6.76;86.56;99173.31;113122;1203;64452;-81
2021/04/18 07:04:21;;;;;;;62.05;35.95;;;;;;;6.85;85.98;99169.38;113332;1203;64388;-81
2021/04/18 07:06:54;;;;;;;63.40;38.50;;;;;;;6.96;85.74;99172.35;113362;1203;64388;-81
2021/04/18 07:09:23;;;;;;;59.80;36.95;;;;;;;7.09;85.50;99167.31;113148;1203;64596;-81
2021/04/18 07:11:57;;;;;;;65.10;38.80;;;;;;;7.07;84.97;99174.47;113504;1203;64497;-81
2021/04/18 07:14:34;;;;;;;65.40;38.30;;;;;;;7.02;85.21;99174.69;113376;1203;64391;-81
2021/04/18 07:17:17;;;;;;;60.35;37.30;;;;;;;7.08;85.16;99172.67;113444;1203;64394;-81
2021/04/18 07:19:49;;;;;;;61.30;36.80;;;;;;;7.15;85.30;99174.09;113396;1203;64336;-81
2021/04/18 07:22:18;;;;;;;56.30;35.17;;;;;;;7.15;85.16;99180.24;113432;1203;64362;-81
2021/04/18 07:24:55;;;;;;;57.80;35.70;;;;;;;7.15;84.87;99182.89;113267;1203;64403;-81
2021/04/18 07:27:22;;;;;;;62.45;37.45;;;;;;;7.23;85.34;99179.86;113151;1203;64436;-81
2021/04/18 07:29:58;;;;;;;53.10;34.60;;;;;;;7.25;84.91;99181.50;113434;1203;64480;-82
2021/04/18 07:32:27;;;;;;;52.10;34.10;;;;;;;7.30;84.88;99188.38;113471;1203;64487;-82
2021/04/18 07:34:54;;;;;;;50.15;33.35;;;;;;;7.25;84.57;99180.65;113421;1203;64420;-81
2021/04/18 07:37:26;;;;;;;57.20;34.53;;;;;;;7.23;84.45;99185.16;113498;1203;64416;-81
2021/04/18 07:39:59;;;;;;;55.27;35.10;;;;;;;7.23;84.66;99182.52;113513;1203;64407;-81
2021/04/18 07:42:40;;;;;;;58.83;37.13;;;;;;;7.28;84.24;99183.14;113736;1203;64430;-81
2021/04/18 07:45:14;;;;;;;54.60;35.90;;;;;;;7.27;84.23;99186.73;114418;1203;63205;-82
2021/04/18 07:47:43;;;;;;;60.05;37.00;;;;;;;7.22;84.38;99186.11;113338;1203;64538;-83
2021/04/18 07:50:12;;;;;;;;;;;;;;;7.30;84.17;99185.73;115254;1210;64426;-81
2021/04/18 07:52:43;;;;;;;53.87;34.30;;;;;;;7.37;84.02;99187.99;115065;1203;64362;-82
2021/04/18 07:55:12;;;;;;;51.10;35.00;;;;;;;7.47;83.95;99185.70;113480;1203;64352;-82
2021/04/18 07:57:40;;;;;;;52.13;36.13;;;;;;;7.60;83.99;99184.14;113609;1203;64778;-84
2021/04/18 08:00:09;;;;;;;46.60;31.80;;;;;;;7.73;83.61;99187.02;113210;1203;64499;-85
2021/04/18 08:08:50;;;;;;;50.80;33.85;;;;;;;8.48;82.13;99172.40;116156;1170;63332;-89
2021/04/18 08:11:20;;;;;;;45.57;31.43;;;;;;;8.72;81.83;99178.13;113576;1203;64349;-89
2021/04/18 08:13:49;;;;;;;48.10;32.30;;;;;;;8.90;81.57;99176.23;113256;1203;64426;-89
2021/04/18 08:16:26;;;;;;;43.25;31.50;;;;;;;9.10;81.23;99177.73;113656;1203;64551;-88
2021/04/18 08:19:04;;;;;;;37.75;27.40;;;;;;;9.23;80.58;99173.41;113262;1202;64397;-91
2021/04/18 08:21:40;;;;;;;41.67;29.27;;;;;;;9.27;79.96;99173.23;114047;1202;64413;-87
2021/04/18 08:24:17;;;;;;;37.40;27.40;;;;;;;9.38;79.73;99176.98;113285;1202;64451;-87
2021/04/18 08:27:07;;;;;;;31.35;24.70;;;;;;;9.43;78.55;99179.38;113257;1203;64400;-94
2021/04/18 08:29:56;;;;;;;;;;;;;;;9.46;78.27;99173.88;113385;1210;64449;-90
2021/04/18 08:32:41;;;;;;;35.73;24.67;;;;;;;9.60;78.54;99173.89;113430;1203;64378;-86
2021/04/18 08:35:14;;;;;;;33.60;24.50;;;;;;;9.62;78.19;99161.35;113528;1202;64742;-87
2021/04/18 08:37:41;;;;;;;32.00;24.20;;;;;;;9.61;78.13;99166.75;113655;1203;64321;-89
2021/04/18 08:43:18;;;;;;;26.80;20.20;;;;;;;9.97;76.25;99162.81;118150;1165;63550;31
2021/04/18 08:48:26;;;;;;;26.17;20.00;;;;;;;10.38;75.99;99143.43;117381;1165;63083;-94
2021/04/18 08:51:00;;;;;;;23.73;18.97;;;;;;;10.69;74.14;99147.61;113960;1202;64317;-93
2021/04/18 08:53:30;;;;;;;21.83;17.23;;;;;;;10.81;74.11;99152.16;115199;1202;64446;-94
2021/04/18 08:58:48;;;;;;;22.50;17.50;;;;;;;10.90;71.45;99153.35;113764;1166;64378;-91
2021/04/18 09:01:16;;;;;;;21.30;17.10;;;;;;;10.74;70.72;99157.05;113281;1202;64362;-81
2021/04/18 09:04:01;;;;;;;20.95;18.20;;;;;;;10.57;71.71;99156.42;113142;1203;64416;-81
2021/04/18 09:06:36;;;;;;;24.93;19.10;;;;;;;10.47;71.61;99158.81;113275;1203;64381;-82
2021/04/18 09:09:06;;;;;;;22.45;18.60;;;;;;;10.30;70.42;99158.08;113314;1203;64509;-83
2021/04/18 09:11:38;;;;;;;23.50;17.80;;;;;;;10.15;71.97;99158.16;113392;1202;64391;-82
2021/04/18 09:14:05;;;;;;;21.53;17.33;;;;;;;10.12;71.96;99159.20;113238;1203;64479;-81
2021/04/18 09:16:34;;;;;;;21.73;17.33;;;;;;;10.15;72.52;99161.67;113198;1202;64486;-82
2021/04/18 09:19:21;;;;;;;19.50;15.60;;;;;;;10.25;71.94;99159.30;113381;1202;64512;-88
2021/04/18 09:22:08;;;;;;;25.25;17.85;;;;;;;10.19;71.06;99157.88;113264;1201;64432;-76
2021/04/18 09:24:38;;;;;;;23.90;19.35;;;;;;;10.14;71.58;99154.64;113169;1203;64417;-77
2021/04/18 09:27:12;;;;;;;22.37;18.77;;;;;;;10.24;71.84;99153.12;113169;1203;64419;-77
2021/04/18 09:29:47;;;;;;;23.97;19.73;;;;;;;10.39;71.64;99153.97;113066;1203;64413;-75
2021/04/18 09:32:19;;;;;;;26.85;20.55;;;;;;;10.58;71.78;99150.97;113155;1202;64922;-76
2021/04/18 09:34:49;;;;;;;24.40;19.37;;;;;;;10.68;69.03;99146.77;113178;1202;64471;-76
2021/04/18 09:37:30;;;;;;;24.55;19.85;;;;;;;10.73;70.48;99143.81;113152;1203;64390;-76
2021/04/18 09:40:06;;;;;;;24.23;19.23;;;;;;;10.74;70.04;99148.17;113171;1203;64385;-76
2021/04/18 09:42:38;;;;;;;21.40;18.47;;;;;;;10.72;70.38;99150.11;113162;1203;64330;-76
2021/04/18 09:45:14;;;;;;;30.70;24.85;;;;;;;10.74;70.37;99149.05;113138;1200;64858;-76
2021/04/18 09:47:43;;;;;;;25.73;20.00;;;;;;;10.62;69.74;99147.17;113271;1203;64473;-77
2021/04/18 09:50:34;;;;;;;28.65;21.50;;;;;;;10.43;69.71;99146.66;113404;1203;64455;-76
2021/04/18 09:53:25;;;;;;;28.60;22.00;;;;;;;10.28;70.42;99151.14;113202;1202;64353;-75
2021/04/18 09:55:52;;;;;;;26.90;21.10;;;;;;;10.40;70.55;99152.16;113264;1203;64400;-75
2021/04/18 09:58:36;;;;;;;32.00;24.60;;;;;;;10.57;70.89;99143.95;113263;1202;64537;-75
2021/04/18 10:01:22;;;;;;;31.40;24.50;;;;;;;10.77;71.02;99145.33;113294;1203;64484;-76
2021/04/18 10:03:49;;;;;;;24.40;19.95;;;;;;;10.84;70.25;99143.10;113289;1203;64499;-76
2021/04/18 10:06:16;;;;;;;25.20;21.00;;;;;;;10.86;70.93;99142.05;113232;1203;64340;-76
2021/04/18 10:08:53;;;;;;;22.03;18.07;;;;;;;10.99;71.07;99142.09;113276;1203;64404;-77
2021/04/18 10:11:21;;;;;;;25.07;20.50;;;;;;;11.05;70.39;99139.01;113210;1202;64496;-76
2021/04/18 10:13:56;;;;;;;28.95;22.70;;;;;;;11.03;70.17;99140.92;113294;1203;64723;-76
2021/04/18 10:16:38;;;;;;;24.27;17.97;;;;;;;11.00;69.06;99151.80;113277;1203;64371;-75
2021/04/18 10:19:18;;;;;;;18.03;15.30;;;;;;;10.91;68.16;99150.59;113172;1203;64487;-76
2021/04/18 10:22:09;;;;;;;19.00;16.40;;;;;;;10.86;69.32;99152.71;113308;1203;64356;-76
2021/04/18 10:24:44;;;;;;;47.90;36.47;;;;;;;10.88;69.12;99152.63;113176;1203;64391;-76
2021/04/18 10:27:13;;;;;;;40.70;31.70;;;;;;;10.82;68.63;99151.22;113205;1203;64372;-77
2021/04/18 10:29:42;;;;;;;40.05;35.95;;;;;;;10.69;68.14;99144.95;113358;1203;64356;-77
2021/04/18 10:32:09;;;;;;;22.90;20.50;;;;;;;10.68;68.66;99146.77;113283;1203;64388;-77
2021/04/18 10:34:37;;;;;;;16.17;14.57;;;;;;;10.81;67.99;99146.83;113289;1203;64342;-79
2021/04/18 10:37:05;;;;;;;17.10;14.05;;;;;;;11.07;67.50;99142.44;113414;1203;64455;-78
2021/04/18 10:39:35;;;;;;;20.57;17.30;;;;;;;11.39;66.88;99150.09;113312;1203;64896;-79
2021/04/18 10:42:02;;;;;;;49.30;43.80;;;;;;;11.62;66.80;99145.86;113324;1203;64368;-79
2021/04/18 10:44:29;;;;;;;34.60;30.25;;;;;;;11.82;65.76;99137.33;113421;1202;64714;-76
2021/04/18 10:46:58;;;;;;;31.15;25.70;;;;;;;12.05;65.23;99135.72;113334;1203;64362;-80
2021/04/18 10:49:26;;;;;;;96.45;69.30;;;;;;;12.29;65.19;99138.45;113359;1203;64353;-81
2021/04/18 10:51:52;;;;;;;19.70;16.33;;;;;;;12.49;64.68;99133.52;113243;1203;64886;-76
2021/04/18 10:54:19;;;;;;;49.27;43.87;;;;;;;12.55;64.67;99132.20;113089;1203;64426;-76
2021/04/18 10:56:48;;;;;;;21.83;19.57;;;;;;;12.65;64.66;99133.25;113187;1203;64426;-76
2021/04/18 10:59:16;;;;;;;18.57;16.67;;;;;;;12.62;64.24;99131.66;113239;1203;65929;-77
2021/04/18 11:01:44;;;;;;;17.07;14.60;;;;;;;12.60;62.20;99130.05;113215;1203;64420;-76
2021/04/18 11:04:11;;;;;;;16.40;14.70;;;;;;;12.44;62.28;99125.81;113256;1203;64509;-77
2021/04/18 11:06:38;;;;;;;16.90;15.10;;;;;;;12.39;62.11;99135.14;113328;1203;64487;-77
2021/04/18 11:09:07;;;;;;;17.40;14.90;;;;;;;12.36;62.60;99127.34;113409;1203;64385;-78
2021/04/18 11:11:34;;;;;;;24.40;21.60;;;;;;;12.43;63.26;99131.30;113805;1203;64358;-78
2021/04/18 11:14:00;;;;;;;18.13;15.77;;;;;;;12.51;60.05;99129.77;113289;1203;64512;-77
2021/04/18 11:16:27;;;;;;;17.45;15.65;;;;;;;12.52;61.85;99135.95;113150;1203;64495;-77
2021/04/18 11:18:53;;;;;;;17.80;15.95;;;;;;;12.64;62.27;99132.40;113150;1202;64451;-76
2021/04/18 11:21:22;;;;;;;16.53;14.83;;;;;;;12.77;60.49;99135.03;113210;1203;64433;-76
2021/04/18 11:23:49;;;;;;;17.60;15.90;;;;;;;12.88;61.41;99135.08;113235;1203;64351;-76
2021/04/18 11:26:16;;;;;;;20.95;18.75;;;;;;;13.03;61.27;99125.03;113161;1203;64461;-76
2021/04/18 11:28:42;;;;;;;26.50;23.85;;;;;;;13.02;61.08;99127.84;113292;1203;64672;-77
2021/04/18 11:31:09;;;;;;;17.90;16.00;;;;;;;12.99;61.11;99120.91;113337;1203;64384;-77
2021/04/18 11:33:36;;;;;;;16.37;14.70;;;;;;;13.01;61.39;99127.00;113127;1203;64442;-77
2021/04/18 11:36:03;;;;;;;14.20;12.70;;;;;;;13.00;59.30;99121.75;113144;1203;64464;-77
2021/04/18 11:38:30;;;;;;;13.90;12.50;;;;;;;12.90;58.72;99125.13;113113;1203;64314;-76
2021/04/18 11:40:57;;;;;;;12.67;11.37;;;;;;;12.86;57.58;99123.63;113125;1202;64557;-75